createdAt,value
2022-11-25T00:03:23.428Z,100900.78
2022-11-25T00:08:26.153Z,100934.47
2022-11-25T00:13:28.959Z,100935.34
2022-11-25T00:18:32.183Z,100928.00
2022-11-25T00:23:35.592Z,100919.84
2022-11-25T00:28:38.376Z,100924.75
2022-11-25T00:33:41.127Z,100911.22
2022-11-25T00:38:44.850Z,100925.66
2022-11-25T00:44:05.960Z,100926.09
2022-11-25T00:49:08.827Z,100911.66
2022-11-25T00:54:11.314Z,100911.66
2022-11-25T00:59:14.123Z,100907.88
2022-11-25T01:04:17.360Z,100898.34
2022-11-25T01:09:20.599Z,100892.81
2022-11-25T01:14:23.823Z,100884.19
2022-11-25T01:19:26.834Z,100875.75
2022-11-25T01:24:29.488Z,100859.97
2022-11-25T01:29:32.552Z,100867.19
2022-11-25T01:34:36.019Z,100864.06
2022-11-25T01:39:40.124Z,100847.22
2022-11-25T01:44:43.625Z,100860.31
2022-11-25T01:50:05.232Z,100857.66
2022-11-25T01:55:14.308Z,100854.19
2022-11-25T02:00:19.624Z,100833.06
2022-11-25T02:05:53.561Z,100821.97
2022-11-25T02:10:56.930Z,100813.28
2022-11-25T02:15:59.676Z,100818.59
2022-11-25T02:21:02.902Z,100813.50
2022-11-25T02:26:06.115Z,100816.78
2022-11-25T02:31:09.014Z,100812.34
2022-11-25T02:36:16.571Z,100810.75
2022-11-25T02:41:28.245Z,100812.53
2022-11-25T02:46:35.048Z,100799.00
2022-11-25T02:51:40.472Z,100797.34
2022-11-25T02:56:45.109Z,100799.31
2022-11-25T03:01:47.719Z,100799.31
2022-11-25T03:06:50.343Z,100801.28
2022-11-25T03:12:11.857Z,100805.06
2022-11-25T03:17:15.031Z,100778.78
2022-11-25T03:22:17.668Z,100782.81
2022-11-25T03:27:20.357Z,100780.84
2022-11-25T03:32:23.082Z,100777.22
2022-11-25T03:37:25.856Z,100774.22
2022-11-25T03:42:28.603Z,100767.72
2022-11-25T03:47:33.124Z,100760.25
2022-11-25T03:52:36.312Z,100762.88
2022-11-25T03:57:39.568Z,100701.88
2022-11-25T04:02:43.036Z,100747.44
2022-11-25T04:07:46.071Z,100709.19
2022-11-25T04:12:49.006Z,100738.31
2022-11-25T04:17:55.804Z,100735.53
2022-11-25T04:22:58.488Z,100728.84
2022-11-25T04:28:01.334Z,100724.78
2022-11-25T04:33:08.349Z,100727.13
2022-11-25T04:38:11.118Z,100731.38
2022-11-25T04:43:14.820Z,100732.84
2022-11-25T04:48:25.588Z,100726.41
2022-11-25T04:53:28.215Z,100715.63
2022-11-25T04:58:49.381Z,100720.66
2022-11-25T05:03:57.330Z,100704.78
2022-11-25T05:09:02.302Z,100707.88
2022-11-25T05:14:06.494Z,100709.97
2022-11-25T05:19:09.282Z,100706.00
2022-11-25T05:24:12.249Z,100695.69
2022-11-25T05:29:15.175Z,100690.97
2022-11-25T05:34:19.370Z,100684.41
2022-11-25T05:39:22.497Z,100663.63
2022-11-25T05:44:43.606Z,100678.03
2022-11-25T05:49:46.542Z,100676.31
2022-11-25T05:54:51.266Z,100670.50
2022-11-25T05:59:58.008Z,100661.19
2022-11-25T06:05:21.071Z,100651.22
2022-11-25T06:10:24.803Z,100630.78
2022-11-25T06:15:28.394Z,100654.28
2022-11-25T06:20:35.110Z,100655.47
2022-11-25T06:25:38.022Z,100653.69
2022-11-25T06:30:42.292Z,100654.13
2022-11-25T06:35:52.481Z,100650.25
2022-11-25T06:41:00.213Z,100655.53
2022-11-25T06:46:05.282Z,100661.31
2022-11-25T06:51:10.811Z,100653.28
2022-11-25T06:56:18.852Z,100654.38
2022-11-25T07:01:24.068Z,100653.03
2022-11-25T07:06:26.839Z,100651.94
2022-11-25T07:11:31.802Z,100648.69
2022-11-25T07:16:35.003Z,100637.47
2022-11-25T07:21:37.747Z,100643.06
2022-11-25T07:26:41.608Z,100639.50
2022-11-25T07:31:45.750Z,100648.56
2022-11-25T07:36:49.937Z,100648.50
2022-11-25T07:41:54.339Z,100634.69
2022-11-25T07:46:57.721Z,100648.72
2022-11-25T07:52:02.018Z,100634.91
2022-11-25T07:57:04.750Z,100613.97
2022-11-25T08:02:09.477Z,100630.44
2022-11-25T08:07:12.529Z,100631.97
2022-11-25T08:12:15.313Z,100623.72
2022-11-25T08:17:17.952Z,100632.16
2022-11-25T08:22:20.637Z,100621.72
2022-11-25T08:27:23.450Z,100609.91
2022-11-25T08:32:26.100Z,100586.66
2022-11-25T08:37:31.314Z,100621.69
2022-11-25T08:42:34.332Z,100618.19
2022-11-25T08:47:36.996Z,100625.00
2022-11-25T08:52:39.782Z,100623.78
2022-11-25T08:57:42.548Z,100623.94
2022-11-25T09:02:45.244Z,100629.25
2022-11-25T09:07:48.217Z,100638.69
2022-11-25T09:12:51.042Z,100640.44
2022-11-25T09:18:04.919Z,100641.91
2022-11-25T09:23:08.681Z,100640.88
2022-11-25T09:28:11.706Z,100639.41
2022-11-25T09:33:14.602Z,100642.16
2022-11-25T09:38:17.147Z,100642.91
2022-11-25T09:43:51.194Z,100639.19
2022-11-25T09:49:00.159Z,100655.16
2022-11-25T09:54:15.622Z,100645.47
2022-11-25T09:59:29.224Z,100626.31
2022-11-25T10:04:36.884Z,100667.66
2022-11-25T10:09:39.961Z,100671.00
2022-11-25T10:14:47.008Z,100665.50
2022-11-25T10:19:57.871Z,100671.28
2022-11-25T10:25:14.924Z,100664.66
2022-11-25T10:30:22.005Z,100664.88
2022-11-25T10:35:37.483Z,100646.59
2022-11-25T10:40:40.205Z,100668.91
2022-11-25T10:46:07.063Z,100637.06
2022-11-25T10:51:29.653Z,100661.59
2022-11-25T10:56:44.064Z,100670.03
2022-11-25T11:01:46.957Z,100663.81
2022-11-25T11:06:51.547Z,100666.72
2022-11-25T11:11:54.231Z,100674.22
2022-11-25T11:16:57.978Z,100667.81
2022-11-25T11:22:16.419Z,100675.09
2022-11-25T11:27:24.035Z,100685.03
2022-11-25T11:32:29.028Z,100680.84
2022-11-25T11:37:44.724Z,100686.13
2022-11-25T11:43:14.029Z,100686.78
2022-11-25T11:48:28.865Z,100688.56
2022-11-25T11:53:36.758Z,100690.78
2022-11-25T11:58:57.820Z,100705.56
2022-11-25T12:04:21.831Z,100701.06
2022-11-25T12:09:25.942Z,100704.16
2022-11-25T12:14:48.811Z,100711.63
2022-11-25T12:20:10.166Z,100708.94
2022-11-25T12:25:24.628Z,100726.16
2022-11-25T12:30:36.773Z,100716.59
2022-11-25T12:35:48.506Z,100732.03
2022-11-25T12:41:14.445Z,100732.88
2022-11-25T12:46:40.633Z,100743.34
2022-11-25T12:52:01.695Z,100742.16
2022-11-25T12:57:30.346Z,100741.91
2022-11-25T13:02:35.942Z,100740.72
2022-11-25T13:08:03.261Z,100747.91
2022-11-25T13:13:39.395Z,100711.91
2022-11-25T13:18:44.253Z,100758.97
2022-11-25T13:23:49.264Z,100759.97
2022-11-25T13:28:52.332Z,100750.13
2022-11-25T13:34:21.827Z,100763.25
2022-11-25T13:39:24.446Z,100764.88
2022-11-25T13:44:32.597Z,100766.53
2022-11-25T13:49:51.733Z,100788.97
2022-11-25T13:54:56.056Z,100782.28
2022-11-25T14:00:07.716Z,100785.28
2022-11-25T14:05:39.748Z,100797.91
2022-11-25T14:10:51.306Z,100794.38
2022-11-25T14:16:08.817Z,100806.66
2022-11-25T14:21:45.718Z,100802.88
2022-11-25T14:26:52.454Z,100808.59
2022-11-25T14:32:13.497Z,100815.38
2022-11-25T14:37:27.759Z,100819.72
2022-11-25T14:42:36.761Z,100810.50
2022-11-25T14:47:39.520Z,100828.75
2022-11-25T14:52:44.475Z,100796.09
2022-11-25T14:57:47.279Z,100850.69
2022-11-25T15:02:56.712Z,100858.72
2022-11-25T15:08:12.063Z,100855.44
2022-11-25T15:13:41.399Z,100882.03
2022-11-25T15:18:58.878Z,100882.97
2022-11-25T15:24:03.097Z,100887.81
2022-11-25T15:29:12.753Z,100902.13
2022-11-25T15:34:16.340Z,100893.75
2022-11-25T15:39:22.079Z,100907.50
2022-11-25T15:44:28.868Z,100926.22
2022-11-25T15:49:32.818Z,100923.47
2022-11-25T15:54:45.204Z,100934.81
2022-11-25T15:59:53.928Z,100945.13
2022-11-25T16:05:17.442Z,100941.59
2022-11-25T16:10:22.994Z,100948.72
2022-11-25T16:15:57.523Z,100959.50
2022-11-25T16:21:05.992Z,100960.63
2022-11-25T16:26:11.768Z,100970.16
2022-11-25T16:31:16.953Z,100980.09
2022-11-25T16:36:19.755Z,100982.50
2022-11-25T16:41:24.978Z,101010.16
2022-11-25T16:46:28.474Z,101008.72
2022-11-25T16:51:31.187Z,101009.50
2022-11-25T16:56:35.583Z,101000.56
2022-11-25T17:01:38.290Z,101039.59
2022-11-25T17:06:42.566Z,101026.88
2022-11-25T17:11:47.210Z,101038.03
2022-11-25T17:16:50.010Z,101029.47
2022-11-25T17:21:52.807Z,101057.38
2022-11-25T17:27:04.464Z,101080.59
2022-11-25T17:32:07.505Z,101061.19
2022-11-25T17:37:18.736Z,101078.88
2022-11-25T17:42:30.956Z,101060.00
2022-11-25T17:47:33.586Z,101046.72
2022-11-25T17:52:36.216Z,101087.66
2022-11-25T17:57:39.625Z,101092.44
2022-11-25T18:02:42.309Z,101112.19
2022-11-25T18:07:45.078Z,101126.94
2022-11-25T18:12:49.935Z,101135.53
2022-11-25T18:17:57.543Z,101155.53
2022-11-25T18:23:01.267Z,101150.59
2022-11-25T18:28:05.008Z,101165.50
2022-11-25T18:33:13.919Z,101169.75
2022-11-25T18:38:16.554Z,101185.00
2022-11-25T18:43:23.652Z,101179.78
2022-11-25T18:48:27.287Z,101189.94
2022-11-25T18:53:30.053Z,101198.78
2022-11-25T18:58:33.391Z,101209.66
2022-11-25T19:03:36.004Z,101214.34
2022-11-25T19:08:38.655Z,101220.88
2022-11-25T19:13:41.474Z,101226.31
2022-11-25T19:18:48.766Z,101233.00
2022-11-25T19:23:51.487Z,101232.53
2022-11-25T19:29:00.111Z,101251.13
2022-11-25T19:34:02.772Z,101259.31
2022-11-25T19:39:14.735Z,101265.75
2022-11-25T19:44:17.743Z,101265.31
2022-11-25T19:49:20.620Z,101282.41
2022-11-25T19:54:23.254Z,101202.13
2022-11-25T19:59:25.934Z,101278.66
2022-11-25T20:04:28.714Z,101274.59
2022-11-25T20:09:31.376Z,101314.19
2022-11-25T20:14:35.153Z,101316.63
2022-11-25T20:19:38.612Z,101324.84
2022-11-25T20:24:41.272Z,101349.41
2022-11-25T20:29:43.960Z,101333.94
2022-11-25T20:34:47.731Z,101331.91
2022-11-25T20:39:52.447Z,101363.66
2022-11-25T20:44:57.703Z,101377.75
2022-11-25T20:50:00.617Z,101384.13
2022-11-25T20:55:16.999Z,101391.31
2022-11-25T21:00:25.623Z,101398.84
2022-11-25T21:05:28.345Z,101409.63
2022-11-25T21:10:35.186Z,101406.34
2022-11-25T21:15:37.861Z,101399.47
2022-11-25T21:20:41.323Z,101417.75
2022-11-25T21:25:44.029Z,101426.69
2022-11-25T21:30:47.426Z,101441.97
2022-11-25T21:35:53.196Z,101441.97
2022-11-25T21:40:56.812Z,101432.06
2022-11-25T21:46:10.356Z,101465.53
2022-11-25T21:51:14.774Z,101472.69
2022-11-25T21:56:28.464Z,101490.59
2022-11-25T22:01:31.624Z,101484.34
2022-11-25T22:06:34.348Z,101486.09
2022-11-25T22:11:39.371Z,101495.94
2022-11-25T22:16:42.130Z,101499.78
2022-11-25T22:21:45.168Z,101454.28
2022-11-25T22:26:51.337Z,101516.78
2022-11-25T22:31:57.425Z,101535.00
2022-11-25T22:37:00.176Z,101552.22
2022-11-25T22:42:07.993Z,101577.03
2022-11-25T22:47:17.694Z,101586.84
2022-11-25T22:52:21.988Z,101600.53
2022-11-25T22:57:24.695Z,101598.44
2022-11-25T23:02:31.929Z,101575.25
2022-11-25T23:07:34.956Z,101634.81
2022-11-25T23:12:37.639Z,101615.56
2022-11-25T23:17:40.589Z,101635.03
2022-11-25T23:22:43.307Z,101627.94
2022-11-25T23:27:46.201Z,101663.25
2022-11-25T23:32:50.677Z,101659.63
2022-11-25T23:37:57.676Z,101684.03
2022-11-25T23:43:00.458Z,101686.38
2022-11-25T23:48:04.155Z,101673.19
2022-11-25T23:53:08.284Z,101697.97
2022-11-25T23:58:16.321Z,101707.41
